Time;durP1;ratioP1;P1;durP2;ratioP2;P2;SDS_P1;SDS_P2;PMS_P1;PMS_P2;Temp;Humidity;BMP_temperature;BMP_pressure;BME280_temperature;BME280_humidity;BME280_pressure;Samples;Min_cycle;Max_cycle;Signal;HPM_P1;HPM_P2
2021/12/23 00:01:43;;;;;;;16.57;12.27;;;-1.50;99.90;;;;;;5096120;28;20200;-81
2021/12/23 00:04:13;;;;;;;18.57;14.17;;;-1.50;99.90;;;;;;5095228;28;20272;-81
2021/12/23 00:06:44;;;;;;;15.83;12.23;;;-1.50;99.90;;;;;;5094778;28;20189;-81
2021/12/23 00:09:14;;;;;;;22.53;14.50;;;-1.50;99.90;;;;;;5095453;28;20208;-81
2021/12/23 00:11:45;;;;;;;13.63;12.10;;;-1.50;99.90;;;;;;5095358;28;20192;-81
2021/12/23 00:14:14;;;;;;;14.00;12.50;;;-1.60;99.90;;;;;;5095509;28;20243;-81
2021/12/23 00:16:46;;;;;;;17.83;11.87;;;-1.60;99.90;;;;;;5095301;28;20216;-81
2021/12/23 00:19:22;;;;;;;15.10;11.53;;;-1.60;99.90;;;;;;5094620;28;20208;-81
2021/12/23 00:24:43;;;;;;;15.67;12.93;;;-1.60;99.90;;;;;;5036750;28;20292;-81
2021/12/23 00:27:12;;;;;;;14.97;12.33;;;-1.60;99.90;;;;;;5090755;28;20220;-81
2021/12/23 00:29:41;;;;;;;13.17;11.87;;;-1.60;99.90;;;;;;5094283;28;20214;-82
2021/12/23 00:32:12;;;;;;;18.60;12.20;;;-1.60;99.90;;;;;;5079579;28;20201;-81
2021/12/23 00:34:41;;;;;;;13.60;11.40;;;-1.60;99.90;;;;;;5074846;28;20205;-81
2021/12/23 00:37:11;;;;;;;15.80;11.63;;;-1.70;99.90;;;;;;5074527;28;20229;-81
2021/12/23 00:39:40;;;;;;;16.13;13.20;;;-1.60;99.90;;;;;;5074284;28;20292;-81
2021/12/23 00:42:10;;;;;;;13.83;11.67;;;-1.70;99.90;;;;;;5089924;28;20193;-81
2021/12/23 00:44:45;;;;;;;19.73;12.97;;;-1.70;99.90;;;;;;5094839;28;20205;-81
2021/12/23 00:47:16;;;;;;;18.57;13.03;;;-1.70;99.90;;;;;;5094653;28;20251;-81
2021/12/23 00:49:44;;;;;;;15.00;12.03;;;-1.70;99.90;;;;;;5094876;28;20239;-81
2021/12/23 00:52:14;;;;;;;13.50;12.10;;;-1.60;99.90;;;;;;5094468;28;20234;-81
2021/12/23 00:54:43;;;;;;;15.83;12.73;;;-1.70;99.90;;;;;;5094446;28;20228;-81
2021/12/23 00:57:11;;;;;;;15.07;11.77;;;-1.60;99.90;;;;;;5094100;28;20288;-81
2021/12/23 00:59:40;;;;;;;20.00;14.20;;;-1.70;99.90;;;;;;5094094;28;20239;-81
2021/12/23 01:02:11;;;;;;;13.70;12.20;;;-1.70;99.90;;;;;;5094670;28;20280;-81
2021/12/23 01:04:42;;;;;;;16.43;12.57;;;-1.70;99.90;;;;;;5094484;28;20197;-81
2021/12/23 01:07:11;;;;;;;14.33;12.60;;;-1.70;99.90;;;;;;5093728;28;20216;-81
2021/12/23 01:09:39;;;;;;;15.97;11.13;;;-1.70;99.90;;;;;;5093444;28;20205;-81
2021/12/23 01:12:11;;;;;;;15.23;12.00;;;-1.70;99.90;;;;;;5093942;28;20192;-80
2021/12/23 01:14:51;;;;;;;18.57;13.13;;;-1.70;99.90;;;;;;5093985;28;20227;-80
2021/12/23 01:20:04;;;;;;;15.87;12.00;;;-1.80;99.90;;;;;;5073235;28;20228;-81
2021/12/23 01:22:33;;;;;;;13.23;11.30;;;-1.70;99.90;;;;;;5094575;28;20216;-81
2021/12/23 01:25:02;;;;;;;12.77;10.73;;;-1.70;99.90;;;;;;5093886;28;20200;-81
2021/12/23 01:27:30;;;;;;;14.13;12.63;;;-1.70;99.90;;;;;;5093825;28;20212;-81
2021/12/23 01:30:02;;;;;;;13.23;11.47;;;-1.70;99.90;;;;;;5093289;28;20201;-81
2021/12/23 01:32:30;;;;;;;15.57;11.70;;;-1.80;99.90;;;;;;5094485;28;20197;-80
2021/12/23 01:34:59;;;;;;;12.60;10.83;;;-1.80;99.90;;;;;;5094175;28;20196;-81
2021/12/23 01:37:29;;;;;;;16.20;11.50;;;-1.80;99.90;;;;;;5093565;28;20216;-80
2021/12/23 01:39:57;;;;;;;14.87;11.40;;;-1.80;99.90;;;;;;5093237;28;20230;-80
2021/12/23 01:42:26;;;;;;;15.53;12.20;;;-1.80;99.90;;;;;;5093384;28;20236;-80
2021/12/23 01:44:54;;;;;;;13.73;11.37;;;-1.80;99.90;;;;;;5093807;28;20201;-81
2021/12/23 01:47:23;;;;;;;17.57;12.23;;;-1.80;99.90;;;;;;5093106;28;20240;-81
2021/12/23 01:49:52;;;;;;;15.77;12.87;;;-1.80;99.90;;;;;;5092617;28;20269;-80
2021/12/23 01:52:20;;;;;;;17.53;13.00;;;-1.90;99.90;;;;;;5093296;28;20239;-81
2021/12/23 01:54:50;;;;;;;14.13;10.50;;;-1.80;99.90;;;;;;5093356;28;20208;-80
2021/12/23 01:57:19;;;;;;;14.03;11.03;;;-1.80;99.90;;;;;;5092981;28;20279;-80
2021/12/23 01:59:49;;;;;;;13.90;11.57;;;-1.90;99.90;;;;;;5092479;28;20204;-80
2021/12/23 02:02:18;;;;;;;13.17;11.67;;;-1.90;99.90;;;;;;5092180;28;20235;-80
2021/12/23 02:04:46;;;;;;;16.67;12.07;;;-1.90;99.90;;;;;;5098056;28;20205;-80
2021/12/23 02:07:15;;;;;;;16.43;12.30;;;-1.90;99.90;;;;;;5099020;28;20231;-79
2021/12/23 02:09:43;;;;;;;12.57;11.30;;;-1.90;99.90;;;;;;5095265;28;20300;-80
2021/12/23 02:12:13;;;;;;;17.10;12.63;;;-1.90;99.90;;;;;;5093386;28;20219;-80
2021/12/23 02:14:42;;;;;;;12.03;10.77;;;-1.80;99.90;;;;;;5092520;28;20193;-80
2021/12/23 02:17:11;;;;;;;13.20;11.53;;;-1.80;99.90;;;;;;5093105;28;20216;-81
2021/12/23 02:19:42;;;;;;;13.80;11.90;;;-1.80;99.90;;;;;;5072430;28;20220;-80
2021/12/23 02:22:12;;;;;;;17.27;13.63;;;-1.80;99.90;;;;;;5080273;28;20196;-80
2021/12/23 02:24:40;;;;;;;15.37;11.80;;;-1.80;99.90;;;;;;5093058;28;20237;-80
2021/12/23 02:27:11;;;;;;;13.53;10.50;;;-1.80;99.90;;;;;;5092698;28;20213;-80
2021/12/23 02:29:40;;;;;;;12.77;10.87;;;-1.80;99.90;;;;;;5092138;28;20225;-80
2021/12/23 02:32:09;;;;;;;12.47;10.80;;;-1.80;99.90;;;;;;5092815;28;20200;-80
2021/12/23 02:34:37;;;;;;;13.60;12.13;;;-1.80;99.90;;;;;;5092644;28;20200;-80
2021/12/23 02:37:09;;;;;;;13.60;11.83;;;-1.80;99.90;;;;;;5092819;28;20273;-80
2021/12/23 02:39:41;;;;;;;13.50;10.00;;;-1.90;99.90;;;;;;5092125;28;20220;-80
2021/12/23 02:42:11;;;;;;;13.00;11.47;;;-1.90;99.90;;;;;;5081003;28;20200;-80
2021/12/23 02:44:39;;;;;;;16.80;12.70;;;-1.90;99.90;;;;;;5092172;28;20201;-80
2021/12/23 02:47:07;;;;;;;15.27;11.07;;;-1.90;99.90;;;;;;5092329;28;20251;-80
2021/12/23 02:49:36;;;;;;;17.47;11.60;;;-1.90;99.90;;;;;;5092427;28;20200;-80
2021/12/23 02:52:05;;;;;;;13.60;11.43;;;-1.90;99.90;;;;;;5092686;28;20282;-80
2021/12/23 02:54:33;;;;;;;16.70;12.20;;;-1.90;99.90;;;;;;5092173;28;20279;-80
2021/12/23 02:57:03;;;;;;;18.27;11.73;;;-1.90;99.90;;;;;;5092385;28;20300;-80
2021/12/23 02:59:31;;;;;;;21.50;13.73;;;-1.90;99.90;;;;;;5091616;28;20220;-80
2021/12/23 03:02:01;;;;;;;17.63;12.70;;;-1.90;99.90;;;;;;5092253;28;20226;-80
2021/12/23 03:04:31;;;;;;;13.17;10.80;;;-1.90;99.90;;;;;;5092487;28;20196;-80
2021/12/23 03:07:00;;;;;;;15.90;12.23;;;-1.90;99.90;;;;;;5092077;28;20196;-80
2021/12/23 03:09:28;;;;;;;15.37;12.27;;;-1.90;99.90;;;;;;5091684;28;20212;-80
2021/12/23 03:11:57;;;;;;;16.73;13.53;;;-1.90;99.90;;;;;;5092079;28;20229;-80
2021/12/23 03:14:27;;;;;;;17.80;11.67;;;-2.00;99.90;;;;;;5094880;28;20315;-80
2021/12/23 03:16:55;;;;;;;12.00;10.60;;;-2.00;99.90;;;;;;5096281;28;20221;-80
2021/12/23 03:19:23;;;;;;;13.47;11.73;;;-2.00;99.90;;;;;;5095822;28;20224;-80
2021/12/23 03:21:52;;;;;;;13.73;11.33;;;-2.00;99.90;;;;;;5096701;28;20239;-80
2021/12/23 03:24:20;;;;;;;14.30;11.97;;;-2.00;99.90;;;;;;5096189;28;20299;-80
2021/12/23 03:26:48;;;;;;;16.43;12.47;;;-2.00;99.90;;;;;;5096134;28;20224;-81
2021/12/23 03:29:17;;;;;;;17.17;12.60;;;-2.00;99.90;;;;;;5095721;28;20197;-80
2021/12/23 03:31:47;;;;;;;16.03;12.17;;;-2.00;99.90;;;;;;5096342;28;20208;-80
2021/12/23 03:34:15;;;;;;;13.60;11.87;;;-2.00;99.90;;;;;;5095751;28;20216;-80
2021/12/23 03:36:43;;;;;;;11.40;10.30;;;-2.00;99.90;;;;;;5095760;28;20298;-80
2021/12/23 03:39:12;;;;;;;13.23;11.80;;;-2.00;99.90;;;;;;5095344;28;20307;-80
2021/12/23 03:41:40;;;;;;;12.57;11.27;;;-2.00;99.90;;;;;;5095732;28;20246;-80
2021/12/23 03:44:09;;;;;;;13.07;11.77;;;-2.00;99.90;;;;;;5095523;28;20224;-80
2021/12/23 03:46:38;;;;;;;16.97;12.90;;;-2.00;99.90;;;;;;5095499;28;20223;-80
2021/12/23 03:49:09;;;;;;;13.57;10.97;;;-1.90;99.90;;;;;;5094914;28;20232;-80
2021/12/23 03:51:38;;;;;;;19.53;12.07;;;-1.90;99.90;;;;;;5095871;28;20303;-80
2021/12/23 03:54:07;;;;;;;16.40;11.47;;;-1.90;99.90;;;;;;5095532;28;20266;-80
2021/12/23 03:56:35;;;;;;;18.70;12.80;;;-1.80;99.90;;;;;;5095092;28;20273;-80
2021/12/23 03:59:04;;;;;;;14.90;11.97;;;-1.80;99.90;;;;;;5095237;28;20216;-80
2021/12/23 04:01:33;;;;;;;17.13;11.93;;;-1.70;99.90;;;;;;5095568;28;20208;-80
2021/12/23 04:04:02;;;;;;;19.80;14.20;;;-1.70;99.90;;;;;;5095749;28;20275;-80
2021/12/23 04:06:32;;;;;;;13.97;12.03;;;-1.70;99.90;;;;;;5095404;28;20227;-80
2021/12/23 04:09:01;;;;;;;14.20;11.57;;;-1.70;99.90;;;;;;5094937;28;20319;-79
2021/12/23 04:11:29;;;;;;;16.73;13.30;;;-1.70;99.90;;;;;;5094844;28;20287;-80
2021/12/23 04:13:58;;;;;;;14.67;12.00;;;-1.70;99.90;;;;;;5099628;28;20204;-79
2021/12/23 04:16:26;;;;;;;12.97;11.70;;;-1.60;99.90;;;;;;5100565;28;20356;-80
2021/12/23 04:18:55;;;;;;;12.97;11.63;;;-1.70;99.90;;;;;;5094000;28;20220;-80
2021/12/23 04:21:24;;;;;;;15.23;12.57;;;-1.70;99.90;;;;;;5095188;28;20246;-80
2021/12/23 04:23:56;;;;;;;20.07;13.33;;;-1.70;99.90;;;;;;5089500;28;20227;-80
2021/12/23 04:26:24;;;;;;;16.03;12.47;;;-1.70;99.90;;;;;;5094695;28;20265;-80
2021/12/23 04:28:53;;;;;;;14.77;12.43;;;-1.70;99.90;;;;;;5094240;28;20272;-80
2021/12/23 04:31:23;;;;;;;20.97;13.70;;;-1.70;99.90;;;;;;5095256;28;20239;-80
2021/12/23 04:33:53;;;;;;;14.43;12.90;;;-1.70;99.90;;;;;;5078675;28;20224;-80
2021/12/23 04:36:24;;;;;;;14.87;11.33;;;-1.70;99.90;;;;;;5095144;28;20200;-80
2021/12/23 04:38:55;;;;;;;16.23;12.90;;;-1.70;99.90;;;;;;5094734;28;20285;-80
2021/12/23 04:41:24;;;;;;;14.60;12.63;;;-1.70;99.90;;;;;;5094474;28;20192;-80
2021/12/23 04:43:52;;;;;;;16.90;12.67;;;-1.80;99.90;;;;;;5085700;28;20247;-80
2021/12/23 04:46:20;;;;;;;12.30;11.07;;;-1.80;99.90;;;;;;5095045;28;20235;-80
2021/12/23 04:48:49;;;;;;;16.60;12.43;;;-1.70;99.90;;;;;;5094130;28;20231;-80
2021/12/23 04:51:19;;;;;;;14.60;11.70;;;-1.70;99.90;;;;;;5094656;28;20284;-80
2021/12/23 04:53:48;;;;;;;14.80;11.17;;;-1.70;99.90;;;;;;5094843;28;20192;-80
2021/12/23 04:56:18;;;;;;;13.73;12.33;;;-1.80;99.90;;;;;;5094574;28;20219;-80
2021/12/23 04:58:47;;;;;;;15.50;12.23;;;-1.90;99.90;;;;;;5093791;28;20250;-80
2021/12/23 05:01:20;;;;;;;14.57;12.03;;;-2.00;99.90;;;;;;5094298;28;20201;-80
2021/12/23 05:03:49;;;;;;;13.87;11.00;;;-2.00;99.90;;;;;;5093955;28;20201;-80
2021/12/23 05:06:18;;;;;;;14.87;11.03;;;-2.00;99.90;;;;;;5094021;28;20248;-80
2021/12/23 05:08:47;;;;;;;16.13;12.97;;;-2.10;99.90;;;;;;5093678;28;20300;-80
2021/12/23 05:11:18;;;;;;;13.10;11.70;;;-2.10;99.90;;;;;;5094277;28;20288;-80
2021/12/23 05:13:48;;;;;;;14.83;13.03;;;-2.10;99.90;;;;;;5093749;28;20205;-80
2021/12/23 05:16:17;;;;;;;17.23;13.20;;;-2.10;99.90;;;;;;5094319;28;20241;-80
2021/12/23 05:18:46;;;;;;;16.60;12.40;;;-2.00;99.90;;;;;;5093588;28;20249;-80
2021/12/23 05:21:14;;;;;;;14.73;12.43;;;-2.00;99.90;;;;;;5093836;28;20244;-80
2021/12/23 05:23:42;;;;;;;13.97;11.63;;;-2.00;99.90;;;;;;5094133;28;20243;-80
2021/12/23 05:26:11;;;;;;;16.67;12.67;;;-1.90;99.90;;;;;;5093949;28;20196;-80
2021/12/23 05:28:40;;;;;;;14.90;12.73;;;-1.90;99.90;;;;;;5093061;28;20221;-80
2021/12/23 05:31:09;;;;;;;12.67;11.00;;;-1.90;99.90;;;;;;5093496;28;20285;-80
2021/12/23 05:33:38;;;;;;;13.67;11.20;;;-1.90;99.90;;;;;;5093472;28;20208;-80
2021/12/23 05:36:06;;;;;;;13.27;11.93;;;-1.90;99.90;;;;;;5093486;28;20228;-80
2021/12/23 05:38:35;;;;;;;13.20;11.60;;;-1.90;99.90;;;;;;5093589;28;20236;-80
2021/12/23 05:41:04;;;;;;;24.83;11.57;;;-1.90;99.90;;;;;;5092677;28;20247;-80
2021/12/23 05:43:32;;;;;;;13.27;11.87;;;-1.90;99.90;;;;;;5093175;28;20234;-80
2021/12/23 05:46:02;;;;;;;17.10;12.77;;;-1.90;99.90;;;;;;5094016;28;20302;-80
2021/12/23 05:48:31;;;;;;;22.23;12.80;;;-1.90;99.90;;;;;;5093136;28;20216;-80
2021/12/23 05:50:59;;;;;;;13.10;11.83;;;-1.90;99.90;;;;;;5092846;28;20284;-80
2021/12/23 05:53:27;;;;;;;25.07;14.60;;;-1.90;99.90;;;;;;5093093;28;20231;-80
2021/12/23 05:55:56;;;;;;;14.80;12.00;;;-1.90;99.90;;;;;;5093123;28;20208;-80
2021/12/23 05:58:24;;;;;;;16.77;11.30;;;-2.00;99.90;;;;;;5093075;28;20247;-80
2021/12/23 06:00:53;;;;;;;14.90;13.00;;;-2.00;99.90;;;;;;5092128;28;20349;-80
2021/12/23 06:03:24;;;;;;;23.47;13.33;;;-2.00;99.90;;;;;;5093272;28;20227;-80
2021/12/23 06:05:52;;;;;;;18.93;12.60;;;-2.00;99.90;;;;;;5093289;28;20239;-80
2021/12/23 06:08:21;;;;;;;17.07;12.33;;;-2.00;99.90;;;;;;5092606;28;20311;-80
2021/12/23 06:10:49;;;;;;;14.87;12.30;;;-2.00;99.90;;;;;;5092459;28;20228;-80
2021/12/23 06:13:18;;;;;;;17.47;12.90;;;-2.00;99.90;;;;;;5093313;28;20223;-80
2021/12/23 06:15:46;;;;;;;15.73;13.23;;;-2.00;99.90;;;;;;5092954;28;20216;-80
2021/12/23 06:18:15;;;;;;;18.13;13.53;;;-2.00;99.90;;;;;;5095298;28;20220;-79
2021/12/23 06:20:44;;;;;;;24.23;12.63;;;-2.00;99.90;;;;;;5098693;28;20220;-80
2021/12/23 06:23:13;;;;;;;16.37;12.93;;;-2.00;99.90;;;;;;5098442;28;20208;-80
2021/12/23 06:25:42;;;;;;;19.10;13.77;;;-2.00;99.90;;;;;;5092816;28;20192;-80
2021/12/23 06:28:12;;;;;;;23.17;13.70;;;-2.00;99.90;;;;;;5093042;28;20224;-80
2021/12/23 06:30:41;;;;;;;20.30;14.40;;;-2.00;99.90;;;;;;5092219;28;20192;-79
2021/12/23 06:33:11;;;;;;;13.47;12.07;;;-2.10;99.90;;;;;;5092580;28;20206;-80
2021/12/23 06:35:40;;;;;;;23.83;14.03;;;-2.10;99.90;;;;;;5092687;28;20228;-80
2021/12/23 06:38:12;;;;;;;13.70;12.07;;;-2.10;99.90;;;;;;5092282;28;20303;-80
2021/12/23 06:40:41;;;;;;;18.47;14.10;;;-2.20;99.90;;;;;;5092011;28;20237;-80
2021/12/23 06:43:09;;;;;;;18.20;13.23;;;-2.20;99.90;;;;;;5092491;28;20258;-80
2021/12/23 06:45:38;;;;;;;14.47;12.20;;;-2.20;99.90;;;;;;5092236;28;20250;-80
2021/12/23 06:48:07;;;;;;;19.90;14.17;;;-2.20;99.90;;;;;;5088340;28;20273;-80
2021/12/23 06:50:35;;;;;;;17.30;12.23;;;-2.20;99.90;;;;;;5091955;28;20300;-80
2021/12/23 06:53:04;;;;;;;14.50;12.80;;;-2.20;99.90;;;;;;5084392;28;20232;-80
2021/12/23 06:55:34;;;;;;;20.33;15.57;;;-2.20;99.90;;;;;;5092418;28;20200;-80
2021/12/23 06:58:02;;;;;;;19.53;13.53;;;-2.20;99.90;;;;;;5092245;28;20213;-80
2021/12/23 07:00:34;;;;;;;16.30;12.13;;;-2.20;99.90;;;;;;5077738;28;20251;-80
2021/12/23 07:03:03;;;;;;;15.83;12.90;;;-2.20;99.90;;;;;;5082355;28;20229;-80
2021/12/23 07:05:32;;;;;;;12.07;10.67;;;-2.20;99.90;;;;;;5072377;28;20197;-79
2021/12/23 07:08:08;;;;;;;13.90;12.07;;;-2.20;99.90;;;;;;5087985;28;20262;-80
2021/12/23 07:10:39;;;;;;;15.57;11.77;;;-2.10;99.90;;;;;;5091543;28;20224;-80
2021/12/23 07:13:07;;;;;;;16.07;12.30;;;-2.20;99.90;;;;;;5092409;28;20220;-80
2021/12/23 07:15:36;;;;;;;17.60;13.37;;;-2.30;99.90;;;;;;5091094;28;20219;-81
2021/12/23 07:18:05;;;;;;;15.87;13.13;;;-2.30;99.90;;;;;;5093156;28;20224;-83
2021/12/23 07:20:33;;;;;;;13.10;11.30;;;-2.30;99.90;;;;;;5088338;28;20212;-82
2021/12/23 07:23:02;;;;;;;17.57;13.67;;;-2.20;99.90;;;;;;5092530;28;20228;-82
2021/12/23 07:25:30;;;;;;;15.43;12.63;;;-2.30;99.90;;;;;;5084170;28;20198;-82
2021/12/23 07:28:00;;;;;;;13.60;12.23;;;-2.20;99.90;;;;;;5092748;28;20293;-82
2021/12/23 07:30:29;;;;;;;14.90;12.73;;;-2.20;99.90;;;;;;5090163;28;20243;-82
2021/12/23 07:32:59;;;;;;;17.03;12.53;;;-2.20;99.90;;;;;;5092938;28;20303;-83
2021/12/23 07:35:27;;;;;;;15.40;12.70;;;-2.20;99.90;;;;;;5087549;28;20232;-81
2021/12/23 07:37:57;;;;;;;17.73;13.23;;;-2.10;99.90;;;;;;5084657;28;21066;-81
2021/12/23 07:40:26;;;;;;;15.37;11.93;;;-2.10;99.90;;;;;;5087027;28;20232;-81
2021/12/23 07:42:56;;;;;;;15.73;12.43;;;-2.10;99.90;;;;;;5092352;28;20279;-81
2021/12/23 07:45:29;;;;;;;18.73;13.03;;;-2.10;99.90;;;;;;5085986;28;20189;-82
2021/12/23 07:47:58;;;;;;;20.77;12.07;;;-2.10;99.90;;;;;;5086174;28;20228;-82
2021/12/23 07:50:27;;;;;;;16.33;12.50;;;-2.10;99.90;;;;;;5092584;28;20212;-81
2021/12/23 07:52:55;;;;;;;18.50;13.83;;;-2.10;99.90;;;;;;5073208;28;20266;-81
2021/12/23 07:55:24;;;;;;;17.83;13.47;;;-2.20;99.90;;;;;;5077876;28;20196;-81
2021/12/23 07:57:53;;;;;;;23.30;12.20;;;-2.20;99.90;;;;;;5070889;28;20221;-80
2021/12/23 08:00:22;;;;;;;18.97;13.00;;;-2.20;99.90;;;;;;5071321;28;20205;-81
2021/12/23 08:02:52;;;;;;;18.53;14.00;;;-2.20;99.90;;;;;;5085501;28;20220;-85
2021/12/23 08:05:21;;;;;;;16.80;12.10;;;-2.10;99.90;;;;;;5083403;28;20204;-80
2021/12/23 08:07:49;;;;;;;14.60;12.07;;;-2.00;99.90;;;;;;5096427;28;20213;-80
2021/12/23 08:10:17;;;;;;;15.37;12.37;;;-1.90;99.90;;;;;;5095973;28;20242;-82
2021/12/23 08:12:45;;;;;;;13.23;11.83;;;-1.90;99.90;;;;;;5096607;28;20292;-82
2021/12/23 08:15:14;;;;;;;17.70;12.93;;;-1.90;99.90;;;;;;5096180;28;20272;-84
2021/12/23 08:17:42;;;;;;;12.63;11.43;;;-2.00;99.90;;;;;;5095896;28;20244;-84
2021/12/23 08:20:15;;;;;;;16.27;13.77;;;-1.90;99.90;;;;;;5095242;28;20201;-83
2021/12/23 08:22:44;;;;;;;11.97;10.73;;;-1.90;99.90;;;;;;5096226;28;20248;-82
2021/12/23 08:25:19;;;;;;;19.23;14.00;;;-1.90;99.90;;;;;;5095675;28;20196;-82
2021/12/23 08:27:47;;;;;;;16.37;13.00;;;-1.90;99.90;;;;;;5095944;28;20278;-81
2021/12/23 08:30:17;;;;;;;13.63;11.87;;;-1.80;99.90;;;;;;5092261;28;20289;-82
2021/12/23 08:32:46;;;;;;;16.20;12.93;;;-1.70;99.90;;;;;;5097062;28;20200;-81
2021/12/23 08:35:17;;;;;;;17.13;13.53;;;-1.70;99.90;;;;;;5100028;28;20235;-88
2021/12/23 08:37:47;;;;;;;15.87;12.63;;;-1.70;99.90;;;;;;5099941;28;20220;-84
2021/12/23 08:40:18;;;;;;;17.90;13.03;;;-1.70;99.90;;;;;;5095671;28;20260;-84
2021/12/23 08:42:47;;;;;;;17.67;14.10;;;-1.70;99.90;;;;;;5095034;28;20304;-85
2021/12/23 08:45:17;;;;;;;16.17;13.63;;;-1.70;99.90;;;;;;5095921;28;20235;-82
2021/12/23 08:47:46;;;;;;;15.33;12.97;;;-1.60;99.90;;;;;;5096254;28;20231;-85
2021/12/23 08:50:17;;;;;;;16.20;13.80;;;-1.60;99.90;;;;;;5095492;28;20258;-85
2021/12/23 08:52:46;;;;;;;19.30;14.30;;;-1.50;99.90;;;;;;5095764;28;20276;-85
2021/12/23 08:55:16;;;;;;;17.60;14.03;;;-1.50;99.90;;;;;;5095678;28;20209;-83
2021/12/23 08:57:44;;;;;;;19.17;12.37;;;-1.50;99.90;;;;;;5083958;28;20252;-83
2021/12/23 09:00:16;;;;;;;20.10;13.93;;;-1.50;99.90;;;;;;5075506;28;20193;-84
2021/12/23 09:02:48;;;;;;;16.53;14.53;;;-1.50;99.90;;;;;;5088030;28;20212;-84
2021/12/23 09:05:20;;;;;;;12.80;11.33;;;-1.50;99.90;;;;;;5095258;28;20254;-83
2021/12/23 09:07:49;;;;;;;23.97;13.47;;;-1.50;99.90;;;;;;5094233;28;20266;-80
2021/12/23 09:10:18;;;;;;;16.20;12.70;;;-1.50;99.90;;;;;;5091516;28;20229;-78
2021/12/23 09:12:46;;;;;;;16.00;12.47;;;-1.50;99.90;;;;;;5094707;28;20197;-79
2021/12/23 09:15:15;;;;;;;15.07;13.07;;;-1.60;99.90;;;;;;5094592;28;20200;-79
2021/12/23 09:17:44;;;;;;;19.07;13.07;;;-1.60;99.90;;;;;;5074884;28;20235;-79
2021/12/23 09:20:14;;;;;;;13.63;12.23;;;-1.50;99.90;;;;;;5085126;28;20212;-77
2021/12/23 09:22:44;;;;;;;14.13;11.93;;;-1.50;99.90;;;;;;5094943;28;20232;-79
2021/12/23 09:25:23;;;;;;;16.07;12.67;;;-1.50;99.90;;;;;;5094964;28;20209;-78
2021/12/23 09:28:23;;;;;;;15.97;12.43;;;-1.50;99.90;;;;;;5081246;28;20232;-78
2021/12/23 09:33:46;;;;;;;16.73;13.50;;;-1.40;99.90;;;;;;5094972;28;20215;-78
2021/12/23 09:36:16;;;;;;;15.73;12.73;;;-1.30;99.90;;;;;;5094800;28;20224;-78
2021/12/23 09:38:46;;;;;;;15.60;12.57;;;-1.30;99.90;;;;;;5094230;28;20232;-78
2021/12/23 09:41:18;;;;;;;14.27;12.40;;;-1.40;99.90;;;;;;5094982;28;20228;-78
2021/12/23 09:43:48;;;;;;;15.60;13.03;;;-1.50;99.90;;;;;;5094581;28;20216;-78
2021/12/23 09:46:22;;;;;;;15.77;13.10;;;-1.50;99.90;;;;;;5094894;28;20239;-79
2021/12/23 09:48:52;;;;;;;21.37;13.83;;;-1.40;99.90;;;;;;5077610;28;20299;-79
2021/12/23 09:51:23;;;;;;;15.00;12.00;;;-1.40;99.90;;;;;;5074160;28;20236;-78
2021/12/23 09:53:59;;;;;;;22.67;14.43;;;-1.30;99.90;;;;;;5074443;28;20266;-78
2021/12/23 09:56:27;;;;;;;19.13;13.30;;;-1.30;99.90;;;;;;5073851;28;20201;-78
2021/12/23 09:58:58;;;;;;;20.97;13.57;;;-1.30;99.90;;;;;;5073290;28;20229;-78
2021/12/23 10:01:27;;;;;;;17.93;13.27;;;-1.20;99.90;;;;;;5081208;28;20360;-80
2021/12/23 10:04:15;;;;;;;14.30;12.47;;;-1.30;99.90;;;;;;5091735;28;20236;-80
2021/12/23 10:06:43;;;;;;;20.53;14.07;;;-1.30;99.90;;;;;;5080751;28;20244;-79
2021/12/23 10:09:19;;;;;;;13.40;11.93;;;-1.30;99.90;;;;;;5081168;28;20196;-80
2021/12/23 10:12:27;;;;;;;14.30;12.87;;;-1.20;99.90;;;;;;5083173;28;20196;-85
2021/12/23 10:31:37;;;;;;;16.13;12.73;;;-1.00;99.90;;;;;;5040039;28;20199;-79
2021/12/23 10:40:10;;;;;;;16.87;12.50;;;-0.80;99.90;;;;;;5082703;28;20197;-81
2021/12/23 10:42:52;;;;;;;13.37;11.63;;;-0.80;99.90;;;;;;5084153;28;20284;-79
2021/12/23 10:45:20;;;;;;;15.33;12.07;;;-1.00;99.90;;;;;;5092968;28;20270;-79
2021/12/23 10:47:56;;;;;;;15.37;13.30;;;-1.00;99.90;;;;;;5093943;28;20250;-78
2021/12/23 10:50:32;;;;;;;18.40;13.73;;;-1.10;99.90;;;;;;5093325;28;20234;-78
2021/12/23 10:53:04;;;;;;;17.33;12.60;;;-0.90;99.90;;;;;;5097087;28;20200;-78
2021/12/23 10:58:21;;;;;;;17.20;13.90;;;-0.70;99.90;;;;;;5093550;28;20220;-79
2021/12/23 11:00:53;;;;;;;20.57;14.80;;;-0.60;99.90;;;;;;5093109;28;20300;-79
2021/12/23 11:03:27;;;;;;;13.13;11.67;;;-0.50;99.90;;;;;;5093009;28;20223;-79
2021/12/23 11:06:05;;;;;;;18.07;13.43;;;-0.40;99.90;;;;;;5093186;28;20200;-81
2021/12/23 11:08:43;;;;;;;15.97;13.43;;;-0.30;99.90;;;;;;5093371;28;20232;-81
2021/12/23 11:11:36;;;;;;;16.00;12.23;;;-0.30;99.90;;;;;;5092954;28;20228;-81
2021/12/23 11:37:12;;;;;;;15.73;12.57;;;-0.30;99.90;;;;;;5055553;28;20231;-81
2021/12/23 11:39:53;;;;;;;15.17;12.50;;;-0.30;99.90;;;;;;5095424;28;20272;-82
2021/12/23 11:42:31;;;;;;;15.20;13.60;;;-0.30;99.90;;;;;;5096762;28;20216;-81
2021/12/23 11:45:00;;;;;;;17.60;14.20;;;-0.30;99.90;;;;;;5096208;28;20235;-81
2021/12/23 11:47:30;;;;;;;14.13;11.67;;;-0.30;99.90;;;;;;5096119;28;20300;-81
2021/12/23 11:49:59;;;;;;;12.77;10.97;;;-0.20;99.90;;;;;;5095821;28;20208;-82
2021/12/23 11:52:27;;;;;;;14.17;11.33;;;-0.30;99.90;;;;;;5096728;28;20208;-81
2021/12/23 11:54:56;;;;;;;14.23;11.17;;;-0.30;99.90;;;;;;5096244;28;20304;-82
2021/12/23 11:57:28;;;;;;;13.20;10.30;;;-0.40;99.90;;;;;;5096424;28;20255;-81
2021/12/23 12:00:08;;;;;;;19.27;11.00;;;-0.30;99.90;;;;;;5095635;28;20197;-82
2021/12/23 12:02:38;;;;;;;13.13;10.97;;;-0.40;99.90;;;;;;5095837;28;20230;-81
2021/12/23 12:05:18;;;;;;;11.63;10.43;;;-0.40;99.90;;;;;;5095754;28;20214;-82
2021/12/23 12:07:46;;;;;;;11.87;10.67;;;-0.40;99.90;;;;;;5095643;28;20220;-82
2021/12/23 12:10:20;;;;;;;12.77;11.20;;;-0.30;99.90;;;;;;5095437;28;20212;-81
2021/12/23 12:12:58;;;;;;;13.00;11.70;;;-0.20;99.90;;;;;;5095753;28;20291;-81
2021/12/23 12:15:47;;;;;;;17.10;11.97;;;-0.20;99.90;;;;;;5095721;28;20230;-81
2021/12/23 12:18:19;;;;;;;14.03;11.87;;;-0.10;99.90;;;;;;5095776;28;20248;-81
2021/12/23 12:20:52;;;;;;;12.53;11.20;;;-0.10;99.90;;;;;;5095143;28;20204;-81
2021/12/23 12:23:23;;;;;;;12.73;10.83;;;-0.10;99.90;;;;;;5095632;28;20232;-81
2021/12/23 12:25:57;;;;;;;14.43;12.50;;;0.10;99.90;;;;;;5095485;28;20224;-81
2021/12/23 12:28:41;;;;;;;11.97;10.40;;;0.20;99.90;;;;;;5095453;28;20228;-81
2021/12/23 12:31:13;;;;;;;15.37;11.57;;;0.20;99.90;;;;;;5095106;28;20204;-82
2021/12/23 12:33:46;;;;;;;19.27;11.43;;;0.20;99.90;;;;;;5095360;28;20239;-82
2021/12/23 12:36:17;;;;;;;14.37;11.77;;;0.30;99.90;;;;;;5095508;28;20286;-81
2021/12/23 12:38:48;;;;;;;13.23;11.17;;;0.20;99.90;;;;;;5094574;28;20283;-81
2021/12/23 12:41:19;;;;;;;14.57;11.70;;;0.10;99.90;;;;;;5095219;28;20208;-82
2021/12/23 12:43:56;;;;;;;16.57;11.43;;;0.10;99.90;;;;;;5095201;28;20305;-82
2021/12/23 12:46:57;;;;;;;12.13;10.67;;;0.10;99.90;;;;;;5094417;28;20250;-81
2021/12/23 12:49:31;;;;;;;12.43;11.13;;;0.20;99.90;;;;;;5094556;28;20212;-82
2021/12/23 12:52:26;;;;;;;14.10;10.83;;;0.20;99.90;;;;;;5112315;23;20209;-92
2021/12/23 12:55:02;;;;;;;13.50;11.47;;;0.30;99.90;;;;;;5055263;28;20202;-95
2021/12/23 12:57:35;;;;;;;13.67;10.97;;;0.30;99.90;;;;;;5055087;28;20275;-95
2021/12/23 13:00:35;;;;;;;13.47;11.50;;;0.30;99.90;;;;;;5055107;28;20237;-96
2021/12/23 13:03:07;;;;;;;12.00;10.57;;;0.30;99.90;;;;;;5013190;28;20223;-96
2021/12/23 13:05:39;;;;;;;13.73;11.30;;;0.30;99.90;;;;;;5035073;28;20236;-96
2021/12/23 13:08:28;;;;;;;15.50;11.57;;;0.30;99.90;;;;;;5035970;28;20202;-96
2021/12/23 13:11:00;;;;;;;11.90;10.50;;;0.30;99.90;;;;;;5035070;28;20472;-96
2021/12/23 13:13:36;;;;;;;12.67;11.43;;;0.30;99.90;;;;;;5035466;28;20227;-94
2021/12/23 13:16:14;;;;;;;17.47;12.47;;;0.30;99.90;;;;;;5034525;28;20241;-95
2021/12/23 13:18:42;;;;;;;16.03;12.70;;;0.40;99.90;;;;;;5034653;28;20210;-95
2021/12/23 13:21:13;;;;;;;16.27;12.87;;;0.40;99.90;;;;;;5034659;28;20234;-95
2021/12/23 13:23:45;;;;;;;17.17;12.47;;;0.40;99.90;;;;;;5034949;28;20227;-95
2021/12/23 13:26:15;;;;;;;12.80;11.27;;;0.40;99.90;;;;;;5034986;28;20211;-95
2021/12/23 13:28:47;;;;;;;15.03;12.27;;;0.30;99.90;;;;;;5034517;28;20230;-95
2021/12/23 13:31:21;;;;;;;12.57;11.27;;;0.40;99.90;;;;;;5035370;28;20209;-96
2021/12/23 13:33:50;;;;;;;15.03;11.60;;;0.40;99.90;;;;;;5035586;28;20226;-96
2021/12/23 13:36:23;;;;;;;20.87;12.67;;;0.30;99.90;;;;;;5034465;28;20298;-95
2021/12/23 13:38:53;;;;;;;14.60;12.33;;;0.30;99.90;;;;;;5034104;28;20203;-95
2021/12/23 13:41:28;;;;;;;14.63;11.67;;;0.30;99.90;;;;;;5034038;28;20211;-95
2021/12/23 13:43:59;;;;;;;17.83;12.67;;;0.40;99.90;;;;;;5034188;28;20226;-95